Darwin International Airport
YPDN : now visible

Aeroporto :











RITROVATECI SU...

 
LOGIN :

Iscrizione | Disclaimer

   EN    FR    IT 

 









Sommario :    VFR   VFR Marginale   IFR   IFR Intensivo   IFR Molto Intensivo
Visibilità : 
Base nubi : 
>= 8 km
>= 3000ft
5 / 8 km
1000 / 3000 ft
1500m / 5 km
500 / 1000 ft
800 / 1500m
200 / 500 ft
< 800m
< 200 ft
Simboli :   Temporali  Nebbia  Neve Forte  Precipitazioni Forti  Vento > 20 kt






- Altitudine del aeroporto : 103 ft
- Codice IATA : DRW


YPDN - Darwin International

ULTIMO METAR :
  • 180200Z 28009KT 9999 FEW029 33/25 Q1008

METARs OBSOLETI :
  • 180130Z 27010KT 9999 FEW027 32/24 Q1009 NOSIG
  • 180100Z 25009KT 9999 FEW026 32/25 Q1009
  • 180030Z 28010KT 9999 FEW024 32/25 Q1009 NOSIG
  • 180000Z 27010KT 9999 FEW022 SCT210 31/24 Q1009
  • 172330Z 25008KT 9999 FEW020 BKN210 31/26 Q1009 NOSIG

TAF TAF YPDN
Valido dal 18 a 00 ore il 19 a 06 ore UTC


172330Z 1800/1906 28010KT 9999 SCT030



MetMap, La meteo Aeronautica in un colpo d'occhio ! - Copyright ORBIFLY Dicembre 2007 - Disclaimer

ORBIFLY MET'MAP TEAM :

Programmazione e sviluppo : Alexandra Zaïnal
Concezione : Baudouin d'Aumeries
Aiuto per la programmazione : Marc-Olivier Méhu
Supporto tecnico e logistico : Manuel Goepfert
Aiuto per la traduzione : Arnaldo La Scala

Contatto : metmap@orbifly.com




FONTI E CREDITI :

   NOAA       Earth
Advisory